Time;durP1;ratioP1;P1;durP2;ratioP2;P2;SDS_P1;SDS_P2;PMS_P1;PMS_P2;Temp;Humidity;BMP_temperature;BMP_pressure;BME280_temperature;BME280_humidity;BME280_pressure;Samples;Min_cycle;Max_cycle;Signal;HPM_P1;HPM_P2
2023/07/11 00:01:13;;;;;;;12.52;4.70;;;24.80;63.40;;;;;;5091695;28;20055;-46
2023/07/11 00:03:39;;;;;;;9.82;4.50;;;24.80;63.30;;;;;;5091428;28;20036;-44
2023/07/11 00:06:08;;;;;;;8.23;4.60;;;24.80;63.30;;;;;;5091706;28;20398;-44
2023/07/11 00:08:36;;;;;;;9.70;4.60;;;24.80;63.20;;;;;;5091733;28;20119;-44
2023/07/11 00:11:03;;;;;;;9.98;4.07;;;24.80;63.20;;;;;;5091565;28;20028;-46
2023/07/11 00:13:29;;;;;;;9.20;4.30;;;24.80;63.20;;;;;;5091278;28;20036;-45
2023/07/11 00:16:02;;;;;;;10.40;4.55;;;24.80;63.10;;;;;;5091561;28;20107;-47
2023/07/11 00:18:28;;;;;;;12.20;4.70;;;24.80;63.10;;;;;;5091295;28;20027;-50
2023/07/11 00:20:54;;;;;;;15.48;4.78;;;24.80;63.30;;;;;;5091499;28;20028;-45
2023/07/11 00:23:20;;;;;;;7.53;4.38;;;24.80;63.40;;;;;;5091270;28;20036;-44
2023/07/11 00:25:45;;;;;;;8.98;4.47;;;24.80;63.30;;;;;;5091558;28;20812;-44
2023/07/11 00:28:12;;;;;;;8.68;4.90;;;24.80;63.30;;;;;;5091495;28;20429;-44
2023/07/11 00:30:41;;;;;;;8.70;4.40;;;24.80;63.30;;;;;;5091585;28;20028;-44
2023/07/11 00:33:08;;;;;;;6.55;4.38;;;24.80;63.40;;;;;;5090997;28;20031;-46
2023/07/11 00:35:36;;;;;;;8.52;4.40;;;24.80;63.30;;;;;;5094529;28;20446;-44
2023/07/11 00:38:01;;;;;;;8.82;4.50;;;24.80;64.00;;;;;;5095272;28;20028;-44
2023/07/11 00:40:29;;;;;;;9.30;4.65;;;24.80;63.20;;;;;;5095450;28;20027;-44
2023/07/11 00:42:55;;;;;;;11.52;4.57;;;24.80;63.20;;;;;;5093945;28;20021;-44
2023/07/11 00:45:49;;;;;;;8.98;4.05;;;24.80;63.30;;;;;;5095340;28;20082;-44
2023/07/11 00:48:19;;;;;;;7.35;3.90;;;24.80;63.30;;;;;;5095224;28;20592;-45
2023/07/11 00:50:45;;;;;;;8.02;4.43;;;24.80;63.30;;;;;;5094041;28;20089;-44
2023/07/11 00:53:12;;;;;;;9.65;4.40;;;24.80;63.40;;;;;;5093779;28;20052;-44
2023/07/11 00:55:41;;;;;;;4.90;3.70;;;24.80;63.30;;;;;;5094032;28;20403;-44
2023/07/11 00:58:07;;;;;;;7.78;4.05;;;24.80;63.30;;;;;;5093896;28;20016;-47
2023/07/11 01:00:33;;;;;;;7.63;4.30;;;24.80;63.30;;;;;;5095039;28;20047;-47
2023/07/11 01:02:59;;;;;;;8.88;4.40;;;24.80;63.30;;;;;;5094674;28;20058;-48
2023/07/11 01:05:25;;;;;;;9.07;4.72;;;24.70;63.30;;;;;;5095022;28;20031;-48
2023/07/11 01:07:51;;;;;;;12.30;4.50;;;24.70;63.40;;;;;;5094849;28;20050;-46
2023/07/11 01:10:17;;;;;;;8.10;4.20;;;24.70;63.40;;;;;;5093739;28;20024;-46
2023/07/11 01:12:44;;;;;;;8.27;4.35;;;24.80;63.40;;;;;;5094876;28;20545;-44
2023/07/11 01:15:11;;;;;;;8.93;4.32;;;24.70;63.90;;;;;;5093288;28;20024;-45
2023/07/11 01:17:37;;;;;;;7.10;4.22;;;24.80;64.10;;;;;;5094722;28;20027;-45
2023/07/11 01:20:07;;;;;;;7.40;4.40;;;24.70;63.40;;;;;;5093414;28;20078;-44
2023/07/11 01:22:36;;;;;;;8.85;4.40;;;24.80;63.40;;;;;;5093495;28;20024;-44
2023/07/11 01:25:11;;;;;;;8.02;4.10;;;24.70;63.40;;;;;;5094377;28;20016;-46
2023/07/11 01:27:40;;;;;;;7.53;4.03;;;24.80;63.40;;;;;;5094632;28;20111;-44
2023/07/11 01:30:08;;;;;;;7.03;4.32;;;24.70;63.40;;;;;;5094440;28;20482;-44
2023/07/11 01:32:36;;;;;;;10.27;4.22;;;24.70;63.40;;;;;;5094314;28;20028;-44
2023/07/11 01:35:03;;;;;;;8.35;4.47;;;24.70;63.40;;;;;;5094291;28;20039;-45
2023/07/11 01:37:30;;;;;;;8.77;4.55;;;24.80;63.50;;;;;;5094512;28;20186;-44
2023/07/11 01:39:56;;;;;;;7.22;4.32;;;24.70;63.40;;;;;;5094109;28;20122;-46
2023/07/11 01:42:23;;;;;;;6.32;4.30;;;24.70;63.40;;;;;;5093300;28;20488;-44
2023/07/11 01:44:49;;;;;;;8.38;4.65;;;24.70;63.40;;;;;;5093671;28;20081;-45
2023/07/11 01:47:15;;;;;;;9.60;4.78;;;24.80;63.50;;;;;;5094133;28;20479;-44
2023/07/11 01:49:41;;;;;;;9.48;4.15;;;24.70;63.30;;;;;;5094099;28;20031;-44
2023/07/11 01:52:19;;;;;;;7.05;4.28;;;24.80;63.30;;;;;;5094092;28;20024;-44
2023/07/11 01:54:45;;;;;;;6.25;4.28;;;24.80;63.30;;;;;;5093900;28;20481;-46
2023/07/11 01:57:11;;;;;;;7.10;4.20;;;24.70;63.30;;;;;;5094070;28;20028;-46
2023/07/11 01:59:38;;;;;;;7.15;4.20;;;24.80;63.40;;;;;;5092814;28;20103;-43
2023/07/11 02:02:04;;;;;;;6.38;4.20;;;24.70;63.30;;;;;;5092676;28;20035;-50
2023/07/11 02:04:33;;;;;;;7.78;4.38;;;24.80;63.30;;;;;;5092505;28;20157;-50
2023/07/11 02:06:59;;;;;;;9.90;3.93;;;24.70;63.20;;;;;;5091043;28;20032;-51
2023/07/11 02:09:25;;;;;;;6.88;4.43;;;24.70;63.30;;;;;;5073959;28;20036;-50
2023/07/11 02:11:51;;;;;;;6.97;4.20;;;24.80;63.30;;;;;;5073544;28;20028;-48
2023/07/11 02:14:19;;;;;;;8.63;4.55;;;24.80;63.20;;;;;;5072000;28;20028;-49
2023/07/11 02:16:47;;;;;;;7.13;3.85;;;24.70;63.10;;;;;;5072359;28;20024;-50
2023/07/11 02:19:16;;;;;;;6.80;4.40;;;24.70;63.10;;;;;;5073514;28;20027;-49
2023/07/11 02:21:42;;;;;;;6.68;4.53;;;24.70;63.20;;;;;;5073461;28;20077;-49
2023/07/11 02:24:10;;;;;;;7.47;4.45;;;24.70;63.20;;;;;;5073307;28;20029;-50
2023/07/11 02:26:36;;;;;;;5.95;4.40;;;24.70;63.10;;;;;;5073639;28;20024;-51
2023/07/11 02:29:05;;;;;;;7.45;4.63;;;24.70;63.80;;;;;;5074017;28;20506;-48
2023/07/11 02:31:32;;;;;;;8.02;4.70;;;24.70;63.20;;;;;;5073242;28;20124;-51
2023/07/11 02:33:58;;;;;;;7.03;4.70;;;24.70;63.20;;;;;;5071466;28;20450;-48
2023/07/11 02:36:24;;;;;;;7.10;4.57;;;24.70;63.10;;;;;;5073034;28;20534;-48
2023/07/11 02:38:50;;;;;;;8.60;4.55;;;24.70;63.10;;;;;;5072762;28;20070;-52
2023/07/11 02:41:16;;;;;;;8.68;5.07;;;24.70;63.00;;;;;;5072877;28;20123;-52
2023/07/11 02:43:42;;;;;;;6.97;4.30;;;24.70;63.00;;;;;;5072635;28;20021;-50
2023/07/11 02:46:08;;;;;;;6.70;4.47;;;24.70;63.10;;;;;;5072794;28;20044;-48
2023/07/11 02:48:34;;;;;;;6.70;4.63;;;24.70;63.10;;;;;;5072614;28;20039;-49
2023/07/11 02:51:00;;;;;;;8.63;4.95;;;24.70;63.70;;;;;;5071538;28;20037;-49
2023/07/11 02:53:26;;;;;;;8.25;4.72;;;24.70;63.10;;;;;;5072338;28;20318;-49
2023/07/11 02:55:53;;;;;;;11.10;4.88;;;24.70;63.10;;;;;;5072624;28;20025;-52
2023/07/11 02:58:19;;;;;;;6.95;4.47;;;24.70;63.10;;;;;;5071681;28;20400;-49
2023/07/11 03:00:55;;;;;;;7.80;4.53;;;24.70;63.10;;;;;;5072514;28;20097;-50
2023/07/11 03:03:21;;;;;;;8.55;4.82;;;24.70;63.10;;;;;;5072309;28;20066;-47
2023/07/11 03:05:48;;;;;;;8.73;5.10;;;24.70;63.00;;;;;;5072518;28;20028;-51
2023/07/11 03:08:15;;;;;;;10.55;5.10;;;24.70;63.00;;;;;;5072272;28;20043;-47
2023/07/11 03:10:41;;;;;;;8.13;5.07;;;24.70;63.00;;;;;;5072393;28;20032;-51
2023/07/11 03:13:08;;;;;;;9.63;4.93;;;24.60;63.50;;;;;;5071869;28;20032;-51
2023/07/11 03:15:35;;;;;;;8.05;4.55;;;24.70;63.00;;;;;;5072183;28;20024;-49
2023/07/11 03:18:01;;;;;;;8.68;4.82;;;24.70;63.00;;;;;;5072163;28;20063;-50
2023/07/11 03:20:27;;;;;;;9.63;5.38;;;24.70;63.00;;;;;;5072175;28;20044;-50
2023/07/11 03:22:53;;;;;;;8.07;5.00;;;24.70;63.00;;;;;;5071813;28;20037;-49
2023/07/11 03:25:18;;;;;;;9.48;5.00;;;24.70;63.00;;;;;;5072208;28;20395;-45
2023/07/11 03:27:44;;;;;;;9.93;5.40;;;24.70;63.00;;;;;;5071934;28;20450;-51
2023/07/11 03:30:10;;;;;;;7.90;4.68;;;24.70;63.10;;;;;;5071827;28;20111;-49
2023/07/11 03:32:36;;;;;;;8.68;4.72;;;24.70;63.00;;;;;;5071875;28;20032;-51
2023/07/11 03:35:02;;;;;;;11.20;5.60;;;24.70;63.00;;;;;;5071695;28;20025;-52
2023/07/11 03:37:28;;;;;;;10.02;5.47;;;24.70;63.00;;;;;;5071860;28;20039;-52
2023/07/11 03:39:54;;;;;;;10.13;5.47;;;24.70;63.00;;;;;;5071624;28;20033;-50
2023/07/11 03:42:20;;;;;;;11.50;5.70;;;24.70;63.00;;;;;;5071948;28;20032;-45
2023/07/11 03:44:46;;;;;;;9.40;5.90;;;24.70;63.10;;;;;;5071518;28;20028;-44
2023/07/11 03:47:12;;;;;;;8.75;5.05;;;24.60;63.00;;;;;;5071740;28;20024;-44
2023/07/11 03:49:37;;;;;;;10.35;5.50;;;24.70;63.00;;;;;;5071539;28;20024;-44
2023/07/11 03:52:04;;;;;;;10.18;5.10;;;24.70;63.00;;;;;;5071589;28;20111;-44
2023/07/11 03:54:29;;;;;;;9.15;5.13;;;24.60;63.00;;;;;;5071348;28;20515;-47
2023/07/11 03:56:55;;;;;;;8.68;5.55;;;24.60;63.00;;;;;;5071594;28;20024;-46
2023/07/11 03:59:21;;;;;;;8.75;5.53;;;24.60;63.00;;;;;;5071504;28;20440;-45
2023/07/11 04:01:47;;;;;;;6.63;4.80;;;24.70;63.00;;;;;;5071533;28;20495;-44
2023/07/11 04:04:13;;;;;;;11.20;5.32;;;24.60;62.90;;;;;;5071285;28;20032;-44
2023/07/11 04:06:40;;;;;;;8.75;5.20;;;24.60;63.40;;;;;;5071654;28;20082;-44
2023/07/11 04:09:06;;;;;;;7.07;4.65;;;24.60;62.80;;;;;;5071241;28;20062;-50
2023/07/11 04:11:32;;;;;;;7.95;4.78;;;24.60;62.80;;;;;;5071495;28;20457;-51
2023/07/11 04:13:58;;;;;;;11.18;4.80;;;24.60;62.70;;;;;;5071011;28;20123;-44
2023/07/11 04:16:24;;;;;;;9.23;4.65;;;24.60;62.60;;;;;;5071599;28;20039;-47
2023/07/11 04:18:50;;;;;;;8.80;4.57;;;24.60;62.50;;;;;;5071434;28;20027;-47
2023/07/11 04:21:16;;;;;;;8.65;4.88;;;24.60;62.50;;;;;;5070279;28;20410;-46
2023/07/11 04:23:43;;;;;;;8.18;4.53;;;24.60;62.40;;;;;;5071058;28;20071;-52
2023/07/11 04:26:09;;;;;;;9.73;4.70;;;24.60;62.20;;;;;;5071519;28;20032;-50
2023/07/11 04:28:35;;;;;;;7.47;4.20;;;24.60;62.40;;;;;;5071263;28;20604;-46
2023/07/11 04:31:02;;;;;;;8.40;4.57;;;24.60;62.40;;;;;;5071320;28;20082;-50
2023/07/11 04:33:27;;;;;;;8.25;4.30;;;24.60;62.30;;;;;;5070941;28;20103;-48
2023/07/11 04:35:53;;;;;;;11.10;4.95;;;24.60;62.40;;;;;;5071275;28;20032;-49
2023/07/11 04:38:19;;;;;;;13.65;4.75;;;24.60;62.40;;;;;;5095271;22;20021;-51
2023/07/11 04:40:46;;;;;;;7.57;4.20;;;24.60;62.30;;;;;;5042061;28;20088;-54
2023/07/11 04:43:12;;;;;;;10.35;4.55;;;24.60;62.40;;;;;;5030933;28;20095;-54
2023/07/11 04:45:38;;;;;;;8.07;4.15;;;24.60;62.20;;;;;;5031475;28;20037;-54
2023/07/11 04:48:04;;;;;;;6.63;4.38;;;24.60;62.40;;;;;;5031622;28;20060;-54
2023/07/11 04:50:30;;;;;;;8.13;4.78;;;24.60;62.40;;;;;;5013539;28;20041;-54
2023/07/11 04:52:56;;;;;;;9.35;4.28;;;24.70;62.50;;;;;;5030697;28;20096;-53
2023/07/11 04:55:22;;;;;;;8.40;4.50;;;24.60;62.50;;;;;;5031084;28;20448;-56
2023/07/11 04:57:48;;;;;;;8.52;4.40;;;24.60;62.50;;;;;;5013402;28;20112;-51
2023/07/11 05:00:14;;;;;;;9.30;4.68;;;24.60;62.50;;;;;;5031012;28;20076;-56
2023/07/11 05:02:40;;;;;;;9.77;4.45;;;24.70;62.60;;;;;;5030944;28;20553;-54
2023/07/11 05:05:06;;;;;;;8.00;4.55;;;24.70;62.50;;;;;;5030794;28;20101;-56
2023/07/11 05:07:32;;;;;;;6.30;3.95;;;24.60;62.50;;;;;;5031035;28;20026;-52
2023/07/11 05:09:58;;;;;;;7.35;4.78;;;24.70;62.60;;;;;;5030914;28;20133;-54
2023/07/11 05:12:24;;;;;;;7.82;5.07;;;24.70;62.60;;;;;;5030972;28;20036;-55
2023/07/11 05:14:50;;;;;;;9.32;4.55;;;24.60;62.50;;;;;;5030653;28;20091;-50
2023/07/11 05:17:16;;;;;;;8.73;4.80;;;24.60;62.60;;;;;;5031002;28;20025;-49
2023/07/11 05:19:42;;;;;;;6.90;4.40;;;24.60;62.50;;;;;;5030923;28;20083;-51
2023/07/11 05:22:07;;;;;;;7.32;4.07;;;24.60;62.60;;;;;;5034838;28;20033;-49
2023/07/11 05:24:33;;;;;;;10.73;4.70;;;24.60;62.60;;;;;;5034314;28;20435;-50
2023/07/11 05:26:59;;;;;;;7.55;4.72;;;24.60;62.70;;;;;;5034445;28;20055;-49
2023/07/11 05:29:25;;;;;;;9.18;4.97;;;24.60;62.60;;;;;;5034473;28;20068;-50
2023/07/11 05:31:50;;;;;;;8.10;4.35;;;24.60;62.60;;;;;;5034441;28;20021;-49
2023/07/11 05:34:16;;;;;;;7.82;4.65;;;24.60;62.70;;;;;;5033963;28;20049;-52
2023/07/11 05:36:42;;;;;;;8.52;4.65;;;24.60;62.70;;;;;;5016552;28;20041;-52
2023/07/11 05:39:14;;;;;;;8.73;4.68;;;24.60;62.60;;;;;;5034036;28;20037;-49
2023/07/11 05:41:44;;;;;;;6.78;4.13;;;24.60;62.60;;;;;;5034160;28;20045;-54
2023/07/11 05:44:12;;;;;;;6.85;4.38;;;24.60;62.70;;;;;;5033874;28;20037;-51
2023/07/11 05:46:38;;;;;;;9.98;4.50;;;24.60;62.70;;;;;;5034225;28;20033;-51
2023/07/11 05:49:06;;;;;;;8.32;4.25;;;24.60;62.80;;;;;;5034277;28;20386;-55
2023/07/11 05:51:32;;;;;;;9.05;4.55;;;24.60;62.70;;;;;;5034117;28;20029;-52
2023/07/11 05:53:58;;;;;;;9.85;4.30;;;24.70;62.80;;;;;;5033798;28;20055;-54
2023/07/11 05:56:25;;;;;;;11.02;4.40;;;24.60;62.70;;;;;;5033987;28;20028;-54
2023/07/11 05:58:51;;;;;;;6.28;3.67;;;24.60;62.70;;;;;;5033931;28;20104;-54
2023/07/11 06:01:20;;;;;;;8.93;3.97;;;24.60;62.70;;;;;;5033808;28;20021;-54
2023/07/11 06:03:49;;;;;;;7.47;4.53;;;24.60;62.60;;;;;;5033502;28;20400;-53
2023/07/11 06:06:16;;;;;;;9.90;4.47;;;24.60;62.70;;;;;;4999977;28;20087;-55
2023/07/11 06:08:42;;;;;;;9.43;4.90;;;24.70;62.80;;;;;;5016243;28;20268;-51
2023/07/11 06:11:08;;;;;;;10.15;4.88;;;24.60;62.80;;;;;;5033863;28;20051;-48
2023/07/11 06:13:37;;;;;;;9.13;4.60;;;24.60;62.80;;;;;;5033353;28;20079;-55
2023/07/11 06:16:10;;;;;;;10.60;4.38;;;24.60;62.70;;;;;;5033656;28;20025;-50
2023/07/11 06:18:37;;;;;;;9.23;4.93;;;24.70;62.70;;;;;;5033389;28;20026;-55
2023/07/11 06:21:06;;;;;;;11.02;5.07;;;24.70;62.60;;;;;;5015788;28;20520;-54
2023/07/11 06:23:32;;;;;;;8.73;4.15;;;24.70;62.60;;;;;;5033207;28;20061;-53
2023/07/11 06:25:58;;;;;;;6.47;4.22;;;24.70;62.50;;;;;;5033436;28;20033;-54
2023/07/11 06:28:25;;;;;;;9.65;4.70;;;24.70;62.50;;;;;;5033237;28;20502;-56
2023/07/11 06:30:50;;;;;;;13.25;4.03;;;24.70;62.60;;;;;;5033318;28;20109;-57
2023/07/11 06:33:18;;;;;;;15.15;4.70;;;24.70;62.50;;;;;;5032890;28;20122;-56
2023/07/11 06:35:49;;;;;;;14.20;4.72;;;24.70;62.80;;;;;;5033137;28;20041;-57
2023/07/11 06:38:14;;;;;;;9.18;4.03;;;24.70;62.50;;;;;;5032985;28;20477;-56
2023/07/11 06:40:45;;;;;;;12.10;4.13;;;24.70;62.60;;;;;;5032943;28;20040;-57
2023/07/11 06:43:11;;;;;;;14.00;3.90;;;24.70;62.50;;;;;;5032726;28;20167;-57
2023/07/11 06:45:37;;;;;;;8.82;3.42;;;24.70;62.60;;;;;;5032780;28;20112;-57
2023/07/11 06:48:03;;;;;;;8.68;3.20;;;24.70;62.90;;;;;;5032588;28;20029;-54
2023/07/11 06:50:28;;;;;;;9.82;3.70;;;24.70;62.30;;;;;;5032768;28;20110;-58
2023/07/11 06:52:54;;;;;;;11.88;3.75;;;24.70;62.40;;;;;;5032616;28;20524;-55
2023/07/11 06:55:20;;;;;;;9.10;4.07;;;24.70;62.50;;;;;;5032812;28;20103;-55
2023/07/11 06:57:46;;;;;;;15.18;4.20;;;24.70;62.20;;;;;;5032742;28;20103;-54
2023/07/11 07:00:12;;;;;;;7.65;4.10;;;24.70;61.60;;;;;;5032634;28;20033;-58
2023/07/11 07:02:38;;;;;;;9.68;4.30;;;24.70;61.60;;;;;;5032586;28;20057;-58
2023/07/11 07:05:04;;;;;;;20.48;4.70;;;24.70;61.90;;;;;;5032143;28;20571;-58
2023/07/11 07:07:30;;;;;;;10.10;4.43;;;24.70;61.60;;;;;;5032410;28;20032;-55
2023/07/11 07:09:58;;;;;;;8.38;4.35;;;24.80;61.80;;;;;;5032400;28;20404;-56
2023/07/11 07:12:24;;;;;;;8.52;4.18;;;24.80;61.60;;;;;;5032621;28;20373;-56
2023/07/11 07:14:50;;;;;;;12.23;4.43;;;24.90;61.20;;;;;;5031985;28;20041;-56
2023/07/11 07:17:16;;;;;;;7.70;4.25;;;25.10;61.20;;;;;;4998524;28;20025;-54
2023/07/11 07:19:43;;;;;;;9.68;4.35;;;25.40;60.30;;;;;;5032218;28;20099;-55
2023/07/11 07:22:09;;;;;;;16.50;5.13;;;25.50;60.00;;;;;;5032341;28;20053;-57
2023/07/11 07:24:35;;;;;;;8.60;4.63;;;25.30;60.30;;;;;;5032019;28;20471;-57
2023/07/11 07:27:02;;;;;;;10.98;3.70;;;25.20;60.50;;;;;;5032246;28;20033;-57
2023/07/11 07:29:28;;;;;;;8.70;4.20;;;25.10;59.90;;;;;;5032128;28;20021;-57
2023/07/11 07:31:54;;;;;;;7.47;3.72;;;25.00;60.30;;;;;;5032632;28;20041;-53
2023/07/11 07:34:20;;;;;;;10.18;3.60;;;25.00;60.00;;;;;;5031789;28;20087;-57
2023/07/11 07:36:45;;;;;;;8.98;3.85;;;25.00;60.50;;;;;;5032225;28;20108;-58
2023/07/11 07:39:11;;;;;;;12.88;4.10;;;24.90;60.90;;;;;;5031867;28;20060;-56
2023/07/11 07:41:37;;;;;;;6.78;3.42;;;25.00;61.30;;;;;;5032028;28;20060;-56
2023/07/11 07:44:03;;;;;;;10.70;3.53;;;24.90;60.10;;;;;;5031217;28;20025;-56
2023/07/11 07:46:29;;;;;;;10.15;3.42;;;25.00;59.40;;;;;;5014256;28;20412;-57
2023/07/11 07:48:55;;;;;;;8.40;3.20;;;25.00;60.10;;;;;;5031782;28;20021;-54
2023/07/11 07:51:21;;;;;;;10.13;3.47;;;25.00;59.30;;;;;;5031866;28;20030;-57
2023/07/11 07:53:46;;;;;;;8.63;3.35;;;25.00;59.40;;;;;;5031422;28;20025;-56
2023/07/11 07:56:20;;;;;;;11.20;2.78;;;25.00;58.30;;;;;;5031768;28;20075;-57
2023/07/11 07:58:47;;;;;;;12.18;3.15;;;;;;;;;;5031657;28;20480;-53
2023/07/11 08:01:15;;;;;;;10.57;3.30;;;25.10;56.80;;;;;;5032028;28;20036;-57
2023/07/11 08:03:41;;;;;;;15.35;3.33;;;25.00;57.50;;;;;;5031328;28;20038;-57
2023/07/11 08:06:08;;;;;;;6.15;2.88;;;25.00;58.10;;;;;;5036962;28;20107;-55
2023/07/11 08:08:34;;;;;;;8.25;3.10;;;25.10;57.70;;;;;;5048269;28;20162;-57
2023/07/11 08:11:01;;;;;;;10.98;2.83;;;25.10;57.70;;;;;;5048201;28;20115;-57
2023/07/11 08:13:28;;;;;;;8.77;3.15;;;25.10;57.70;;;;;;5048843;28;20056;-57
2023/07/11 08:15:54;;;;;;;7.88;3.05;;;25.10;58.60;;;;;;5048529;28;20044;-55
2023/07/11 08:18:19;;;;;;;10.88;3.28;;;25.00;57.60;;;;;;5049244;28;20133;-56
2023/07/11 08:20:45;;;;;;;7.85;2.50;;;25.00;57.40;;;;;;5049176;28;20037;-53
2023/07/11 08:23:11;;;;;;;7.93;2.38;;;25.00;57.30;;;;;;5048802;28;20029;-55
2023/07/11 08:25:37;;;;;;;7.60;3.22;;;25.00;57.10;;;;;;5049253;28;20047;-57
2023/07/11 08:28:06;;;;;;;7.40;2.42;;;25.00;57.00;;;;;;5048843;28;20025;-55
2023/07/11 08:30:35;;;;;;;8.70;3.00;;;25.10;56.00;;;;;;5049024;28;20116;-53
2023/07/11 08:33:02;;;;;;;8.07;2.38;;;25.10;54.60;;;;;;5048207;28;20040;-56
2023/07/11 08:35:28;;;;;;;5.45;2.13;;;25.10;54.00;;;;;;5048616;28;20025;-57
2023/07/11 08:37:55;;;;;;;10.93;2.83;;;25.10;54.10;;;;;;5049076;28;20036;-55
2023/07/11 08:40:23;;;;;;;7.05;2.60;;;25.10;53.90;;;;;;5048574;28;20550;-57
2023/07/11 08:42:50;;;;;;;6.60;2.85;;;25.10;54.30;;;;;;5030888;28;20480;-56
2023/07/11 08:45:22;;;;;;;9.05;2.50;;;25.10;53.40;;;;;;5048831;28;20035;-56
2023/07/11 08:47:57;;;;;;;9.43;2.38;;;25.10;53.30;;;;;;5049232;28;20036;-52
2023/07/11 08:50:32;;;;;;;6.97;2.40;;;25.20;52.50;;;;;;5048853;28;20591;-49
2023/07/11 08:53:29;;;;;;;12.05;3.08;;;25.20;53.10;;;;;;5048607;28;20029;-56
2023/07/11 08:56:03;;;;;;;6.47;2.65;;;25.20;53.80;;;;;;5048862;28;20400;-56
2023/07/11 08:58:34;;;;;;;9.27;2.80;;;25.30;53.60;;;;;;5052775;28;20477;-55
2023/07/11 09:01:04;;;;;;;12.82;2.70;;;25.30;53.50;;;;;;5034551;28;20400;-55
2023/07/11 09:03:34;;;;;;;5.60;2.30;;;25.30;53.40;;;;;;5052349;28;20087;-54
2023/07/11 09:06:03;;;;;;;;;;;25.20;52.50;;;;;;5052540;28;20032;-55
2023/07/11 09:08:30;;;;;;;7.30;2.65;;;25.10;53.80;;;;;;5052508;28;19912;-53
2023/07/11 09:11:06;;;;;;;6.70;2.08;;;25.10;53.40;;;;;;5052414;28;20040;-56
2023/07/11 09:13:40;;;;;;;6.93;1.90;;;25.10;52.40;;;;;;5052048;28;20032;-55
2023/07/11 09:16:13;;;;;;;7.82;2.50;;;25.10;53.10;;;;;;5046195;28;20025;-55
2023/07/11 09:19:00;;;;;;;5.63;1.83;;;25.10;52.00;;;;;;5034443;28;20025;-53
2023/07/11 09:21:59;;;;;;;7.65;2.25;;;25.10;52.20;;;;;;5048135;28;20033;-52
2023/07/11 09:24:40;;;;;;;4.13;1.98;;;25.20;50.60;;;;;;5046668;28;20464;-56
2023/07/11 09:27:22;;;;;;;6.50;2.13;;;25.20;50.00;;;;;;5026271;28;20047;-51
2023/07/11 09:29:49;;;;;;;6.15;2.13;;;25.30;50.10;;;;;;5052136;28;20075;-55
2023/07/11 09:32:16;;;;;;;8.02;2.30;;;25.40;50.20;;;;;;5034231;28;20021;-54
2023/07/11 09:34:45;;;;;;;5.22;2.13;;;25.30;50.90;;;;;;5033635;28;20079;-53
2023/07/11 09:37:33;;;;;;;8.82;2.40;;;25.20;51.40;;;;;;5051983;28;20392;-55
2023/07/11 09:40:11;;;;;;;8.48;2.10;;;25.20;50.40;;;;;;5051867;28;20037;-54
2023/07/11 09:42:52;;;;;;;5.65;2.00;;;25.30;51.40;;;;;;5052046;28;20033;-54
2023/07/11 09:45:22;;;;;;;12.77;3.00;;;25.30;50.50;;;;;;5045274;28;20166;-55
2023/07/11 09:47:54;;;;;;;7.13;2.30;;;25.40;50.50;;;;;;5017571;28;20407;-55
2023/07/11 09:50:43;;;;;;;6.32;2.28;;;25.30;50.60;;;;;;5051735;28;20032;-49
2023/07/11 09:53:17;;;;;;;8.55;2.60;;;25.30;50.80;;;;;;5043736;28;20032;-55
2023/07/11 09:55:43;;;;;;;7.05;2.63;;;25.30;50.90;;;;;;5051934;28;20559;-55
2023/07/11 09:58:14;;;;;;;7.90;2.60;;;25.30;51.10;;;;;;5033931;28;20021;-54
2023/07/11 10:00:46;;;;;;;13.40;2.38;;;25.30;51.90;;;;;;5051680;28;20047;-53
2023/07/11 10:03:20;;;;;;;8.43;2.20;;;25.30;52.20;;;;;;5043995;28;20057;-54
2023/07/11 10:05:48;;;;;;;13.93;2.28;;;25.30;53.10;;;;;;5051121;28;20040;-51
2023/07/11 10:08:30;;;;;;;11.30;2.58;;;25.30;52.90;;;;;;5051249;28;20025;-51
2023/07/11 10:11:03;;;;;;;10.80;2.53;;;25.30;53.00;;;;;;5033272;28;20020;-55
2023/07/11 10:13:29;;;;;;;9.48;2.28;;;25.30;52.90;;;;;;5050519;28;20086;-55
2023/07/11 10:15:57;;;;;;;7.70;2.45;;;25.30;53.20;;;;;;5033212;28;20108;-54
2023/07/11 10:18:26;;;;;;;6.85;2.25;;;25.20;53.30;;;;;;5051147;28;20037;-54
2023/07/11 10:20:56;;;;;;;7.05;2.50;;;25.20;53.40;;;;;;5051075;28;20128;-50
2023/07/11 10:23:24;;;;;;;5.53;2.03;;;25.20;53.60;;;;;;5051008;28;20052;-50
2023/07/11 10:25:53;;;;;;;6.97;2.35;;;25.20;53.70;;;;;;5051387;28;20025;-51
2023/07/11 10:28:35;;;;;;;4.82;2.28;;;25.20;53.80;;;;;;5051051;28;20443;-51
2023/07/11 10:31:09;;;;;;;4.78;1.98;;;25.20;54.00;;;;;;5051148;28;20048;-52
2023/07/11 10:33:46;;;;;;;4.75;2.25;;;25.20;54.10;;;;;;5050632;28;20052;-54
2023/07/11 10:36:35;;;;;;;4.15;2.10;;;25.20;54.30;;;;;;5034121;28;20020;-54
2023/07/11 10:39:09;;;;;;;7.72;1.90;;;25.20;54.40;;;;;;5049881;28;20083;-52
2023/07/11 10:41:47;;;;;;;5.30;2.03;;;25.20;54.60;;;;;;5051045;28;20060;-54
2023/07/11 10:44:20;;;;;;;7.25;2.20;;;25.20;54.70;;;;;;5050378;28;20111;-52
2023/07/11 10:46:53;;;;;;;5.78;2.20;;;25.20;54.80;;;;;;5050756;28;20547;-54
2023/07/11 10:49:28;;;;;;;4.57;2.15;;;25.20;55.00;;;;;;5051267;28;20040;-51
2023/07/11 10:52:03;;;;;;;6.47;2.42;;;25.20;55.20;;;;;;5050686;28;20067;-54
2023/07/11 10:54:42;;;;;;;4.63;1.80;;;25.20;55.00;;;;;;5050579;28;20064;-54
2023/07/11 10:57:16;;;;;;;5.95;2.00;;;25.20;55.20;;;;;;5050653;28;20021;-53
2023/07/11 10:59:42;;;;;;;6.88;2.17;;;25.10;55.20;;;;;;5050309;28;20035;-55
2023/07/11 11:02:31;;;;;;;4.13;2.00;;;25.20;55.30;;;;;;5050383;28;20103;-55
2023/07/11 11:05:25;;;;;;;6.22;2.13;;;25.10;55.30;;;;;;5050033;28;20086;-52
2023/07/11 11:08:15;;;;;;;4.90;1.95;;;25.20;55.50;;;;;;5047840;28;20025;-51
2023/07/11 11:10:50;;;;;;;4.28;2.15;;;25.20;55.60;;;;;;5050286;28;20020;-54
2023/07/11 11:13:34;;;;;;;4.82;2.03;;;25.10;55.60;;;;;;5049729;28;20055;-54
2023/07/11 11:16:13;;;;;;;8.15;2.17;;;25.10;55.70;;;;;;5050053;28;20537;-55
2023/07/11 11:18:43;;;;;;;5.43;2.28;;;25.20;56.20;;;;;;5049334;28;20503;-55
2023/07/11 11:21:09;;;;;;;6.60;2.30;;;25.20;56.50;;;;;;5050006;28;20021;-53
2023/07/11 11:24:17;;;;;;;14.15;2.55;;;25.20;57.10;;;;;;5049846;28;20519;-52
2023/07/11 11:26:49;;;;;;;7.80;2.83;;;25.30;58.30;;;;;;5029328;28;20039;-54
2023/07/11 11:29:39;;;;;;;15.10;3.30;;;25.30;56.50;;;;;;5049888;28;20468;-52
2023/07/11 11:32:25;;;;;;;12.35;3.38;;;25.40;54.40;;;;;;5031825;28;20407;-52
2023/07/11 11:35:00;;;;;;;11.30;4.00;;;25.40;54.00;;;;;;5049458;28;20024;-54
2023/07/11 11:37:49;;;;;;;13.38;3.30;;;25.50;54.40;;;;;;5049775;28;20075;-55
2023/07/11 11:40:23;;;;;;;12.40;3.72;;;25.50;54.90;;;;;;5049436;28;20059;-54
2023/07/11 11:43:02;;;;;;;9.25;3.03;;;25.40;54.70;;;;;;5049164;28;20098;-48
2023/07/11 11:45:29;;;;;;;13.45;3.47;;;25.40;54.70;;;;;;5049791;28;20039;-54
2023/07/11 11:48:00;;;;;;;9.95;3.10;;;25.40;55.30;;;;;;5031699;28;20036;-51
2023/07/11 11:50:29;;;;;;;5.80;3.22;;;25.30;56.10;;;;;;5031801;28;20075;-54
2023/07/11 11:52:56;;;;;;;9.95;3.67;;;25.30;55.90;;;;;;5048830;28;20464;-48
2023/07/11 11:55:33;;;;;;;9.27;3.60;;;25.30;56.00;;;;;;5049654;28;20159;-51
2023/07/11 11:57:59;;;;;;;7.07;3.35;;;25.30;56.10;;;;;;5049227;28;20029;-52
2023/07/11 12:00:45;;;;;;;8.63;3.20;;;25.30;56.00;;;;;;5049116;28;20052;-55
2023/07/11 12:03:27;;;;;;;9.13;3.45;;;25.40;56.60;;;;;;5041242;28;20369;-51
2023/07/11 12:05:55;;;;;;;9.15;3.05;;;25.30;56.90;;;;;;5049415;28;20036;-51
2023/07/11 12:08:28;;;;;;;5.75;2.88;;;25.30;55.90;;;;;;5049271;28;20516;-51
2023/07/11 12:11:06;;;;;;;10.70;3.10;;;25.30;56.40;;;;;;5050880;28;20503;-53
2023/07/11 12:13:34;;;;;;;7.32;3.60;;;25.30;56.20;;;;;;5053474;28;20115;-52
2023/07/11 12:16:28;;;;;;;7.90;3.08;;;25.40;56.00;;;;;;5049047;28;20024;-54
2023/07/11 12:18:58;;;;;;;7.57;3.25;;;25.30;56.30;;;;;;5048623;28;20551;-50
2023/07/11 12:21:31;;;;;;;6.85;3.03;;;25.30;56.00;;;;;;5049460;28;20176;-51
2023/07/11 12:24:21;;;;;;;5.28;2.83;;;25.30;56.80;;;;;;5048310;28;20040;-55
2023/07/11 12:26:47;;;;;;;6.60;2.90;;;25.30;56.40;;;;;;5049101;28;20049;-52
2023/07/11 12:29:36;;;;;;;9.07;3.10;;;25.30;56.20;;;;;;5049819;28;20465;-55
2023/07/11 12:32:33;;;;;;;7.82;3.17;;;25.30;56.30;;;;;;5053395;28;20033;-54
2023/07/11 12:35:04;;;;;;;7.25;3.05;;;25.30;56.20;;;;;;5052840;28;20040;-55
2023/07/11 12:38:02;;;;;;;7.00;3.08;;;25.30;56.40;;;;;;5052976;28;20052;-55
2023/07/11 12:40:53;;;;;;;6.57;3.00;;;25.30;56.70;;;;;;5047469;28;20048;-51
2023/07/11 12:43:23;;;;;;;7.30;3.13;;;25.30;55.60;;;;;;5046165;28;20447;-53
2023/07/11 12:45:50;;;;;;;;;;;25.30;55.90;;;;;;5052934;28;20060;-51
2023/07/11 12:48:20;;;;;;;10.85;3.30;;;25.30;55.40;;;;;;5052130;28;20430;-50
2023/07/11 12:50:55;;;;;;;7.00;3.28;;;25.30;56.20;;;;;;5052323;28;20543;-51
2023/07/11 12:53:21;;;;;;;5.70;2.90;;;25.30;55.80;;;;;;5029149;28;20037;-54
2023/07/11 12:55:49;;;;;;;7.53;3.20;;;25.30;56.30;;;;;;5050214;28;20492;-54
2023/07/11 12:58:30;;;;;;;6.30;2.92;;;25.30;56.40;;;;;;5052659;28;20040;-53